createdAt,value
2023-04-16T00:00:45.207Z,7.71
2023-04-16T00:03:48.333Z,7.67
2023-04-16T00:06:51.559Z,7.66
2023-04-16T00:09:54.353Z,7.68
2023-04-16T00:12:57.337Z,7.69
2023-04-16T00:16:00.233Z,7.67
2023-04-16T00:19:03.079Z,7.70
2023-04-16T00:22:06.465Z,7.70
2023-04-16T00:25:14.462Z,7.81
2023-04-16T00:28:17.304Z,7.84
2023-04-16T00:31:31.090Z,7.84
2023-04-16T00:34:34.258Z,7.81
2023-04-16T00:37:37.334Z,7.78
2023-04-16T00:40:40.485Z,7.76
2023-04-16T00:43:43.670Z,7.77
2023-04-16T00:46:46.921Z,7.86
2023-04-16T00:49:50.615Z,7.87
2023-04-16T00:52:53.727Z,7.84
2023-04-16T00:55:57.826Z,7.83
2023-04-16T00:59:01.250Z,7.81
2023-04-16T01:02:04.371Z,7.79
2023-04-16T01:05:07.680Z,7.89
2023-04-16T01:08:21.797Z,7.98
2023-04-16T01:11:25.067Z,8.00
2023-04-16T01:14:28.053Z,7.89
2023-04-16T01:17:30.961Z,7.85
2023-04-16T01:20:36.202Z,7.85
2023-04-16T01:23:39.252Z,7.86
2023-04-16T01:26:42.310Z,7.88
2023-04-16T01:29:45.226Z,7.92
2023-04-16T01:32:49.245Z,7.96
2023-04-16T01:35:52.165Z,7.97
2023-04-16T01:38:55.138Z,8.02
2023-04-16T01:41:58.011Z,7.99
2023-04-16T01:45:01.153Z,7.99
2023-04-16T01:48:04.595Z,8.04
2023-04-16T01:51:07.381Z,7.97
2023-04-16T01:54:10.268Z,7.97
2023-04-16T01:57:13.150Z,7.96
2023-04-16T02:00:16.157Z,7.96
2023-04-16T02:03:24.927Z,7.98
2023-04-16T02:06:29.311Z,7.99
2023-04-16T02:09:34.188Z,8.01
2023-04-16T02:12:37.185Z,7.96
2023-04-16T02:15:40.102Z,7.88
2023-04-16T02:18:42.902Z,7.86
2023-04-16T02:21:46.399Z,7.81
2023-04-16T02:24:50.849Z,7.86
2023-04-16T02:27:53.581Z,7.81
2023-04-16T02:31:11.179Z,7.83
2023-04-16T02:34:19.376Z,7.88
2023-04-16T02:37:22.159Z,7.86
2023-04-16T02:40:25.788Z,7.86
2023-04-16T02:43:28.807Z,7.86
2023-04-16T02:46:32.080Z,7.86
2023-04-16T02:49:36.021Z,7.79
2023-04-16T02:52:39.000Z,7.79
2023-04-16T02:55:41.852Z,7.77
2023-04-16T02:58:44.856Z,7.72
2023-04-16T03:01:48.037Z,7.69
2023-04-16T03:04:51.021Z,7.68
2023-04-16T03:07:56.876Z,7.64
2023-04-16T03:10:59.669Z,7.65
2023-04-16T03:14:02.502Z,7.66
2023-04-16T03:17:05.552Z,7.72
2023-04-16T03:20:09.443Z,7.76
2023-04-16T03:23:12.392Z,7.80
2023-04-16T03:26:15.415Z,7.77
2023-04-16T03:29:18.588Z,7.80
2023-04-16T03:32:21.619Z,7.76
2023-04-16T03:35:24.522Z,7.73
2023-04-16T03:38:27.481Z,7.78
2023-04-16T03:41:32.676Z,7.74
2023-04-16T03:44:36.413Z,7.78
2023-04-16T03:47:39.255Z,7.73
2023-04-16T03:50:47.097Z,7.77
2023-04-16T03:53:51.753Z,7.78
2023-04-16T03:56:55.082Z,7.75
2023-04-16T03:59:58.148Z,7.76
2023-04-16T04:03:03.803Z,7.77
2023-04-16T04:06:08.889Z,7.78
2023-04-16T04:09:12.025Z,7.80
2023-04-16T04:12:15.091Z,7.80
2023-04-16T04:15:19.993Z,7.82
2023-04-16T04:18:23.396Z,7.88
2023-04-16T04:21:28.521Z,7.85
2023-04-16T04:24:31.420Z,7.85
2023-04-16T04:27:34.625Z,7.86
2023-04-16T04:30:38.237Z,7.90
2023-04-16T04:33:42.062Z,8.00
2023-04-16T04:36:44.883Z,7.98
2023-04-16T04:39:49.429Z,8.04
2023-04-16T04:42:53.046Z,8.05
2023-04-16T04:45:58.448Z,8.10
2023-04-16T04:49:03.764Z,8.14
2023-04-16T04:52:08.447Z,8.23
2023-04-16T04:55:11.578Z,8.26
2023-04-16T04:58:14.542Z,8.20
2023-04-16T05:01:18.674Z,8.19
2023-04-16T05:04:21.477Z,8.28
2023-04-16T05:07:24.239Z,8.26
2023-04-16T05:10:27.389Z,8.26
2023-04-16T05:13:30.166Z,8.26
2023-04-16T05:16:32.949Z,8.21
2023-04-16T05:19:35.844Z,8.26
2023-04-16T05:22:38.929Z,8.35
2023-04-16T05:25:41.808Z,8.31
2023-04-16T05:28:44.641Z,8.51
2023-04-16T05:31:47.489Z,8.62
2023-04-16T05:34:50.404Z,8.71
2023-04-16T05:37:53.383Z,8.61
2023-04-16T05:40:56.317Z,8.72
2023-04-16T05:43:59.142Z,8.76
2023-04-16T05:47:02.056Z,8.84
2023-04-16T05:50:05.197Z,9.13
2023-04-16T05:53:09.467Z,9.09
2023-04-16T05:56:12.353Z,9.40
2023-04-16T05:59:15.166Z,9.35
2023-04-16T06:02:18.106Z,9.46
2023-04-16T06:05:20.979Z,9.46
2023-04-16T06:08:24.053Z,9.70
2023-04-16T06:11:27.894Z,9.61
2023-04-16T06:14:30.918Z,9.69
2023-04-16T06:17:33.902Z,9.61
2023-04-16T06:20:36.973Z,9.46
2023-04-16T06:23:40.020Z,9.63
2023-04-16T06:26:42.934Z,9.98
2023-04-16T06:29:45.801Z,10.20
2023-04-16T06:32:49.784Z,10.08
2023-04-16T06:35:52.572Z,10.21
2023-04-16T06:38:55.652Z,10.37
2023-04-16T06:41:58.493Z,11.10
2023-04-16T06:45:01.682Z,11.46
2023-04-16T06:48:05.380Z,11.53
2023-04-16T06:51:08.507Z,11.72
2023-04-16T06:54:11.300Z,11.91
2023-04-16T06:57:14.152Z,12.37
2023-04-16T07:00:19.488Z,12.26
2023-04-16T07:03:22.818Z,13.10
2023-04-16T07:06:26.985Z,13.72
2023-04-16T07:09:29.853Z,14.26
2023-04-16T07:12:33.558Z,14.10
2023-04-16T07:15:36.296Z,13.61
2023-04-16T07:18:39.311Z,13.56
2023-04-16T07:21:44.922Z,13.86
2023-04-16T07:24:47.856Z,13.47
2023-04-16T07:27:50.619Z,13.69
2023-04-16T07:30:53.406Z,13.44
2023-04-16T07:33:56.196Z,12.91
2023-04-16T07:36:59.057Z,13.11
2023-04-16T07:40:02.034Z,13.05
2023-04-16T07:43:04.835Z,13.35
2023-04-16T07:46:07.799Z,13.39
2023-04-16T07:49:10.867Z,13.59
2023-04-16T07:52:14.067Z,13.70
2023-04-16T07:55:16.954Z,13.76
2023-04-16T07:58:19.743Z,14.13
2023-04-16T08:01:22.589Z,14.01
2023-04-16T08:04:26.423Z,14.34
2023-04-16T08:07:29.474Z,14.33
2023-04-16T08:10:33.423Z,14.93
2023-04-16T08:13:36.249Z,15.15
2023-04-16T08:16:40.769Z,15.50
2023-04-16T08:19:45.286Z,15.53
2023-04-16T08:22:49.234Z,15.73
2023-04-16T08:25:53.050Z,15.81
2023-04-16T08:28:56.032Z,15.56
2023-04-16T08:32:00.000Z,15.58
2023-04-16T08:35:03.047Z,14.91
2023-04-16T08:38:07.633Z,15.08
2023-04-16T08:41:13.386Z,15.45
2023-04-16T08:44:49.275Z,15.92
2023-04-16T08:47:53.229Z,15.96
2023-04-16T08:50:56.634Z,17.67
2023-04-16T08:54:04.849Z,19.05
2023-04-16T08:57:12.038Z,18.96
2023-04-16T09:00:16.860Z,19.08
2023-04-16T09:03:22.507Z,19.69
2023-04-16T09:06:28.450Z,20.80
2023-04-16T09:09:33.386Z,20.91
2023-04-16T09:12:40.211Z,21.42
2023-04-16T09:15:46.073Z,20.72
2023-04-16T09:18:48.969Z,19.67
2023-04-16T09:21:51.905Z,18.12
2023-04-16T09:24:54.753Z,18.21
2023-04-16T09:27:57.534Z,17.37
2023-04-16T09:31:17.425Z,17.48
2023-04-16T09:34:21.190Z,17.17
2023-04-16T09:37:24.995Z,16.62
2023-04-16T09:40:30.663Z,17.25
2023-04-16T09:43:33.562Z,17.61
2023-04-16T09:46:45.546Z,17.01
2023-04-16T09:49:48.627Z,16.86
2023-04-16T09:52:51.901Z,16.73
2023-04-16T09:56:01.568Z,16.44
2023-04-16T09:59:04.405Z,16.18
2023-04-16T10:02:14.514Z,15.58
2023-04-16T10:05:20.525Z,16.49
2023-04-16T10:08:24.289Z,16.91
2023-04-16T10:11:27.387Z,17.86
2023-04-16T10:14:30.109Z,18.03
2023-04-16T10:17:33.532Z,17.79
2023-04-16T10:20:37.415Z,17.59
2023-04-16T10:23:41.713Z,18.37
2023-04-16T10:26:45.449Z,19.76
2023-04-16T10:29:49.499Z,21.46
2023-04-16T10:32:52.992Z,22.57
2023-04-16T10:36:12.076Z,25.15
2023-04-16T10:39:19.072Z,24.52
2023-04-16T10:42:22.083Z,26.29
2023-04-16T10:45:37.784Z,23.41
2023-04-16T10:48:49.591Z,23.97
2023-04-16T10:51:58.862Z,25.71
2023-04-16T10:55:01.570Z,25.99
2023-04-16T10:58:27.605Z,26.27
2023-04-16T11:01:32.716Z,27.93
2023-04-16T11:04:37.811Z,28.13
2023-04-16T11:07:49.563Z,29.75
2023-04-16T11:10:53.420Z,29.05
2023-04-16T11:13:57.222Z,27.13
2023-04-16T11:17:03.989Z,26.89
2023-04-16T11:20:20.492Z,27.64
2023-04-16T11:23:23.815Z,28.41
2023-04-16T11:26:30.872Z,26.54
2023-04-16T11:29:34.281Z,20.95
2023-04-16T11:32:40.488Z,21.73
2023-04-16T11:35:43.722Z,20.64
2023-04-16T11:38:47.388Z,20.92
2023-04-16T11:41:52.670Z,21.87
2023-04-16T11:44:57.081Z,21.47
2023-04-16T11:48:00.045Z,21.41
2023-04-16T11:51:03.244Z,20.04
2023-04-16T11:54:08.066Z,21.09
2023-04-16T11:57:13.560Z,20.65
2023-04-16T12:00:16.697Z,20.38
2023-04-16T12:03:19.670Z,18.95
2023-04-16T12:06:24.336Z,19.04
2023-04-16T12:09:27.469Z,18.57
2023-04-16T12:12:32.620Z,18.54
2023-04-16T12:15:49.830Z,18.42
2023-04-16T12:19:05.756Z,18.06
2023-04-16T12:22:08.491Z,18.03
2023-04-16T12:25:12.879Z,17.71
2023-04-16T12:28:26.693Z,16.95
2023-04-16T12:31:38.743Z,17.15
2023-04-16T12:34:51.742Z,17.59
2023-04-16T12:37:54.538Z,17.95
2023-04-16T12:40:58.571Z,17.48
2023-04-16T12:44:12.931Z,17.51
2023-04-16T12:47:15.884Z,17.78
2023-04-16T12:50:18.880Z,17.88
2023-04-16T12:53:21.807Z,18.03
2023-04-16T12:56:24.799Z,17.82
2023-04-16T12:59:28.024Z,17.85
2023-04-16T13:02:32.456Z,17.54
2023-04-16T13:05:35.526Z,17.47
2023-04-16T13:08:38.451Z,17.26
2023-04-16T13:11:41.889Z,17.11
2023-04-16T13:14:45.305Z,17.09
2023-04-16T13:17:48.218Z,17.25
2023-04-16T13:20:51.212Z,17.23
2023-04-16T13:23:54.658Z,17.59
2023-04-16T13:26:57.548Z,17.67
2023-04-16T13:30:00.582Z,17.97
2023-04-16T13:33:03.879Z,17.98
2023-04-16T13:36:07.103Z,17.94
2023-04-16T13:39:13.070Z,18.16
2023-04-16T13:42:15.834Z,18.43
2023-04-16T13:45:20.616Z,17.90
2023-04-16T13:48:23.614Z,18.58
2023-04-16T13:51:27.794Z,17.95
2023-04-16T13:54:30.745Z,17.65
2023-04-16T13:57:33.906Z,17.38
2023-04-16T14:00:37.678Z,17.51
2023-04-16T14:03:42.067Z,17.35
2023-04-16T14:06:45.034Z,17.80
2023-04-16T14:09:48.001Z,17.56
2023-04-16T14:12:51.552Z,17.78
2023-04-16T14:15:55.001Z,17.64
2023-04-16T14:19:00.377Z,17.81
2023-04-16T14:22:03.235Z,17.47
2023-04-16T14:25:07.234Z,17.76
2023-04-16T14:28:10.124Z,17.14
2023-04-16T14:31:13.171Z,17.62
2023-04-16T14:34:17.105Z,17.66
2023-04-16T14:37:20.333Z,17.45
2023-04-16T14:40:23.504Z,16.95
2023-04-16T14:43:27.378Z,17.03
2023-04-16T14:46:30.669Z,17.12
2023-04-16T14:49:34.533Z,17.15
2023-04-16T14:52:37.712Z,17.18
2023-04-16T14:55:40.744Z,17.10
2023-04-16T14:58:43.792Z,17.08
2023-04-16T15:01:47.398Z,17.29
2023-04-16T15:04:50.487Z,16.62
2023-04-16T15:07:53.886Z,16.66
2023-04-16T15:10:57.093Z,16.14
2023-04-16T15:14:00.002Z,16.20
2023-04-16T15:17:03.474Z,16.35
2023-04-16T15:20:08.364Z,15.80
2023-04-16T15:23:11.192Z,16.19
2023-04-16T15:26:14.410Z,16.43
2023-04-16T15:29:17.583Z,16.40
2023-04-16T15:32:20.618Z,16.19
2023-04-16T15:35:23.736Z,16.43
2023-04-16T15:38:26.947Z,16.12
2023-04-16T15:41:32.110Z,15.97
2023-04-16T15:44:35.147Z,15.66
2023-04-16T15:47:40.173Z,15.61
2023-04-16T15:50:44.786Z,15.30
2023-04-16T15:53:49.603Z,15.49
2023-04-16T15:56:52.667Z,15.09
2023-04-16T16:00:06.606Z,14.99
2023-04-16T16:03:11.188Z,14.97
2023-04-16T16:06:14.225Z,14.98
2023-04-16T16:09:17.511Z,14.96
2023-04-16T16:12:20.535Z,15.04
2023-04-16T16:15:23.554Z,14.96
2023-04-16T16:18:26.529Z,14.99
2023-04-16T16:21:32.930Z,15.01
2023-04-16T16:24:35.958Z,15.01
2023-04-16T16:27:40.750Z,14.95
2023-04-16T16:30:43.812Z,14.93
2023-04-16T16:33:47.016Z,14.71
2023-04-16T16:36:50.228Z,14.65
2023-04-16T16:39:53.201Z,14.60
2023-04-16T16:42:56.279Z,14.29
2023-04-16T16:45:59.524Z,14.32
2023-04-16T16:49:05.332Z,14.30
2023-04-16T16:52:08.406Z,14.17
2023-04-16T16:55:11.714Z,13.98
2023-04-16T16:58:14.584Z,13.94
2023-04-16T17:01:18.104Z,13.88
2023-04-16T17:04:21.264Z,13.81
2023-04-16T17:07:24.185Z,13.65
2023-04-16T17:10:27.190Z,13.50
2023-04-16T17:13:32.810Z,13.46
2023-04-16T17:16:36.206Z,13.46
2023-04-16T17:19:39.313Z,13.42
2023-04-16T17:22:42.996Z,13.39
2023-04-16T17:25:46.298Z,13.28
2023-04-16T17:28:51.127Z,13.16
2023-04-16T17:31:54.404Z,13.17
2023-04-16T17:34:57.573Z,13.05
2023-04-16T17:38:01.342Z,12.99
2023-04-16T17:41:04.508Z,13.03
2023-04-16T17:44:09.921Z,13.08
2023-04-16T17:47:14.766Z,12.94
2023-04-16T17:50:17.784Z,12.87
2023-04-16T17:53:22.239Z,12.88
2023-04-16T17:56:25.207Z,12.92
2023-04-16T17:59:28.410Z,12.80
2023-04-16T18:02:31.837Z,12.82
2023-04-16T18:05:35.155Z,12.78
2023-04-16T18:08:38.386Z,12.80
2023-04-16T18:11:42.980Z,12.80
2023-04-16T18:14:46.313Z,12.82
2023-04-16T18:17:49.377Z,12.76
2023-04-16T18:20:52.954Z,12.72
2023-04-16T18:23:56.054Z,12.67
2023-04-16T18:26:59.128Z,12.62
2023-04-16T18:30:04.427Z,12.58
2023-04-16T18:33:34.249Z,12.63
2023-04-16T18:36:31.372Z,12.60
2023-04-16T18:39:34.468Z,12.56
2023-04-16T18:42:37.451Z,12.48
2023-04-16T18:45:41.918Z,12.43
2023-04-16T18:48:45.951Z,12.47
2023-04-16T18:51:48.947Z,12.41
2023-04-16T18:54:52.095Z,12.45
2023-04-16T18:57:55.386Z,12.32
2023-04-16T19:00:59.261Z,12.32
2023-04-16T19:04:03.434Z,12.26
2023-04-16T19:07:06.511Z,12.29
2023-04-16T19:10:09.876Z,12.27
2023-04-16T19:13:13.188Z,12.23
2023-04-16T19:16:17.163Z,12.19
2023-04-16T19:19:21.978Z,12.18
2023-04-16T19:22:25.612Z,12.19
2023-04-16T19:25:28.571Z,12.30
2023-04-16T19:28:31.557Z,12.20
2023-04-16T19:31:35.206Z,12.08
2023-04-16T19:34:38.041Z,12.14
2023-04-16T19:37:41.328Z,12.06
2023-04-16T19:40:46.030Z,11.98
2023-04-16T19:43:49.514Z,11.96
2023-04-16T19:46:52.744Z,11.85
2023-04-16T19:49:55.887Z,11.82
2023-04-16T19:52:59.045Z,11.78
2023-04-16T19:56:02.206Z,11.69
2023-04-16T19:59:05.261Z,11.62
2023-04-16T20:02:08.619Z,11.61
2023-04-16T20:05:11.773Z,11.54
2023-04-16T20:08:15.024Z,11.59
2023-04-16T20:11:18.315Z,11.61
2023-04-16T20:14:21.184Z,11.67
2023-04-16T20:17:24.501Z,11.53
2023-04-16T20:20:27.664Z,11.47
2023-04-16T20:23:30.989Z,11.48
2023-04-16T20:26:34.370Z,11.46
2023-04-16T20:29:37.344Z,11.44
2023-04-16T20:32:40.079Z,11.41
2023-04-16T20:35:42.917Z,11.45
2023-04-16T20:38:46.791Z,11.50
2023-04-16T20:41:57.281Z,11.44
2023-04-16T20:45:00.917Z,11.40
2023-04-16T20:48:08.086Z,11.47
2023-04-16T20:51:11.113Z,11.41
2023-04-16T20:54:13.890Z,11.41
2023-04-16T20:57:16.764Z,11.40
2023-04-16T21:00:19.840Z,11.31
2023-04-16T21:03:23.169Z,11.32
2023-04-16T21:06:26.045Z,11.33
2023-04-16T21:09:29.823Z,11.30
2023-04-16T21:12:32.702Z,11.32
2023-04-16T21:15:37.084Z,11.26
2023-04-16T21:18:40.022Z,11.22
2023-04-16T21:21:42.878Z,11.24
2023-04-16T21:24:45.888Z,11.27
2023-04-16T21:27:48.838Z,11.18
2023-04-16T21:30:52.493Z,11.20
2023-04-16T21:33:55.542Z,11.21
2023-04-16T21:36:58.409Z,11.20
2023-04-16T21:40:01.243Z,11.21
2023-04-16T21:43:04.017Z,11.18
2023-04-16T21:46:06.757Z,11.22
2023-04-16T21:49:09.742Z,11.18
2023-04-16T21:52:18.363Z,11.16
2023-04-16T21:55:21.371Z,11.15
2023-04-16T21:58:25.869Z,11.15
2023-04-16T22:01:28.820Z,11.15
2023-04-16T22:04:38.736Z,11.16
2023-04-16T22:07:41.960Z,11.17
2023-04-16T22:10:44.777Z,11.17
2023-04-16T22:13:47.846Z,11.20
2023-04-16T22:16:51.838Z,11.22
2023-04-16T22:19:55.348Z,11.19
2023-04-16T22:22:58.938Z,11.25
2023-04-16T22:26:03.111Z,11.26
2023-04-16T22:29:06.830Z,11.27
2023-04-16T22:32:09.903Z,11.26
2023-04-16T22:35:13.127Z,11.25
2023-04-16T22:38:16.615Z,11.24
2023-04-16T22:41:19.553Z,11.21
2023-04-16T22:44:22.359Z,11.23
2023-04-16T22:47:25.360Z,11.26
2023-04-16T22:50:28.719Z,11.25
2023-04-16T22:53:31.679Z,11.25
2023-04-16T22:56:34.429Z,11.21
2023-04-16T22:59:37.265Z,11.23
2023-04-16T23:02:40.180Z,11.21
2023-04-16T23:05:43.021Z,11.21
2023-04-16T23:08:45.776Z,11.15
2023-04-16T23:11:49.151Z,11.06
2023-04-16T23:14:53.263Z,11.07
2023-04-16T23:17:56.256Z,11.00
2023-04-16T23:20:59.171Z,10.99
2023-04-16T23:24:02.175Z,10.96
2023-04-16T23:27:05.066Z,10.99
2023-04-16T23:30:08.491Z,11.04
2023-04-16T23:33:14.647Z,11.00
2023-04-16T23:36:17.547Z,10.96
2023-04-16T23:39:20.639Z,10.93
2023-04-16T23:42:23.686Z,11.04
2023-04-16T23:45:26.639Z,10.98
2023-04-16T23:48:29.484Z,11.03
2023-04-16T23:51:32.413Z,10.98
2023-04-16T23:54:35.293Z,11.05
2023-04-16T23:57:38.052Z,11.02
